LAN1321 SPJC-SGAS
Flight info
| Callsign | LAN1321 |
|---|---|
| Flight time | 3h 8m |
| Altitude | 35000 |
| Route | ASOXI DCT AKSOL DCT EKUVA DCT BOMEL DCT KAMAK/N0445F370 DCT REPES DCT EVLAR DCT ORALO DCT ARSUN DCT GEKOR DCT IMBAM DCT AKTUN DCT MAKPI DCT IVSOS DCT DAKRO DCT SORSU DCT DOLPU DCT ESMEL DCT NETSU DCT BOLET DCT BUXOR DCT EGEXO |
| Aircraft | A319/M-SDE3FGHIRWY/LB1 |
Departure
| Time | 2026-05-08 17:48 |
|---|---|
| Airport | Jorge Chávez International Airport (SPJC) |
Arrival
| Time | 2026-05-08 20:56 |
|---|---|
| Airport | Silvio Pettirossi International Airport (SGAS) |
| Time | Latitude | Longitude | Altitude | Speed | Heading |
|---|---|---|---|---|---|
| 2026-05-08 17:25 | -12.02170 | -77.10947 | 92 ft | 0 kts | 205° |
| 2026-05-08 17:38 | -12.02150 | -77.10937 | 93 ft | 3 kts | 205° |
| 2026-05-08 17:38 | -12.02127 | -77.10929 | 91 ft | 4 kts | 180° |
| 2026-05-08 17:38 | -12.02103 | -77.10936 | 91 ft | 4 kts | 128° |
| 2026-05-08 17:39 | -12.02092 | -77.10960 | 91 ft | 4 kts | 100° |
| 2026-05-08 17:39 | -12.02090 | -77.10988 | 91 ft | 4 kts | 81° |
| 2026-05-08 17:39 | -12.02098 | -77.11013 | 92 ft | 4 kts | 65° |
| 2026-05-08 17:39 | -12.02109 | -77.11038 | 91 ft | 4 kts | 65° |
| 2026-05-08 17:40 | -12.02121 | -77.11063 | 92 ft | 4 kts | 62° |
| 2026-05-08 17:40 | -12.02135 | -77.11087 | 92 ft | 4 kts | 50° |
| 2026-05-08 17:40 | -12.02153 | -77.11101 | 93 ft | 2 kts | 9° |
| 2026-05-08 17:40 | -12.02179 | -77.11104 | 91 ft | 4 kts | 2° |
| 2026-05-08 17:41 | -12.02188 | -77.11104 | 91 ft | 0 kts | 4° |
| 2026-05-08 17:44 | -12.02179 | -77.11105 | 91 ft | 4 kts | 354° |
| 2026-05-08 17:44 | -12.02124 | -77.11128 | 90 ft | 13 kts | 334° |
| 2026-05-08 17:44 | -12.02015 | -77.11179 | 89 ft | 20 kts | 335° |
| 2026-05-08 17:45 | -12.01918 | -77.11270 | 86 ft | 21 kts | 303° |
| 2026-05-08 17:45 | -12.01826 | -77.11403 | 73 ft | 25 kts | 330° |
| 2026-05-08 17:45 | -12.01660 | -77.11481 | 70 ft | 27 kts | 334° |
| 2026-05-08 17:45 | -12.01487 | -77.11570 | 65 ft | 29 kts | 334° |
| 2026-05-08 17:46 | -12.01297 | -77.11662 | 66 ft | 31 kts | 335° |
| 2026-05-08 17:46 | -12.01095 | -77.11762 | 63 ft | 33 kts | 335° |
| 2026-05-08 17:46 | -12.00877 | -77.11868 | 57 ft | 34 kts | 334° |
| 2026-05-08 17:46 | -12.00702 | -77.11958 | 57 ft | 25 kts | 320° |
| 2026-05-08 17:47 | -12.00728 | -77.12119 | 53 ft | 25 kts | 214° |
| 2026-05-08 17:47 | -12.00911 | -77.12068 | 53 ft | 41 kts | 155° |
| 2026-05-08 17:47 | -12.01349 | -77.11856 | 63 ft | 97 kts | 155° |
| 2026-05-08 17:47 | -12.02114 | -77.11479 | 70 ft | 146 kts | 154° |
| 2026-05-08 17:48 | -12.03104 | -77.10995 | 411 ft | 157 kts | 156° |
| 2026-05-08 17:48 | -12.04081 | -77.10506 | 977 ft | 157 kts | 155° |
| 2026-05-08 17:48 | -12.05100 | -77.10002 | 1339 ft | 172 kts | 156° |
| 2026-05-08 17:48 | -12.06244 | -77.09439 | 1570 ft | 194 kts | 156° |
| 2026-05-08 17:49 | -12.07552 | -77.08795 | 1818 ft | 220 kts | 155° |
| 2026-05-08 17:49 | -12.09004 | -77.08081 | 2200 ft | 244 kts | 155° |
| 2026-05-08 17:49 | -12.10594 | -77.07296 | 2728 ft | 261 kts | 154° |
| 2026-05-08 17:49 | -12.12252 | -77.06474 | 3491 ft | 268 kts | 153° |
| 2026-05-08 17:50 | -12.13949 | -77.05631 | 4227 ft | 275 kts | 154° |
| 2026-05-08 17:50 | -12.15685 | -77.04771 | 4972 ft | 280 kts | 154° |
| 2026-05-08 17:50 | -12.17335 | -77.03685 | 5675 ft | 285 kts | 141° |
| 2026-05-08 17:50 | -12.18804 | -77.02302 | 6403 ft | 289 kts | 134° |
| 2026-05-08 17:51 | -12.20190 | -77.00798 | 7073 ft | 292 kts | 132° |
| 2026-05-08 17:51 | -12.21560 | -76.99257 | 7760 ft | 295 kts | 132° |
| 2026-05-08 17:51 | -12.22961 | -76.97703 | 8431 ft | 298 kts | 134° |
| 2026-05-08 17:51 | -12.24568 | -76.96348 | 9082 ft | 301 kts | 145° |
| 2026-05-08 17:52 | -12.26295 | -76.95125 | 9741 ft | 304 kts | 146° |
| 2026-05-08 17:52 | -12.28057 | -76.93904 | 10296 ft | 310 kts | 146° |
| 2026-05-08 17:52 | -12.31869 | -76.91278 | 10643 ft | 346 kts | 146° |
| 2026-05-08 17:53 | -12.33879 | -76.89892 | 11131 ft | 350 kts | 146° |
| 2026-05-08 17:53 | -12.35908 | -76.88495 | 11672 ft | 352 kts | 146° |
| 2026-05-08 17:53 | -12.37944 | -76.87090 | 12239 ft | 353 kts | 145° |
| 2026-05-08 17:53 | -12.39983 | -76.85678 | 12808 ft | 354 kts | 145° |
| 2026-05-08 17:54 | -12.42019 | -76.84266 | 13369 ft | 355 kts | 145° |
| 2026-05-08 17:54 | -12.44065 | -76.82850 | 13893 ft | 356 kts | 145° |
| 2026-05-08 17:54 | -12.46123 | -76.81425 | 14339 ft | 357 kts | 145° |
| 2026-05-08 17:54 | -12.48183 | -76.79996 | 14756 ft | 360 kts | 145° |
| 2026-05-08 17:55 | -12.50270 | -76.78547 | 15165 ft | 363 kts | 145° |
| 2026-05-08 17:55 | -12.52370 | -76.77092 | 15581 ft | 366 kts | 144° |
| 2026-05-08 17:55 | -12.54481 | -76.75629 | 15988 ft | 369 kts | 144° |
| 2026-05-08 17:55 | -12.56612 | -76.74150 | 16391 ft | 372 kts | 144° |
| 2026-05-08 17:56 | -12.58730 | -76.72679 | 16795 ft | 374 kts | 144° |
| 2026-05-08 17:56 | -12.60920 | -76.71156 | 17209 ft | 377 kts | 144° |
| 2026-05-08 17:56 | -12.63069 | -76.69665 | 17611 ft | 379 kts | 144° |
| 2026-05-08 17:56 | -12.65263 | -76.68144 | 18013 ft | 382 kts | 144° |
| 2026-05-08 17:57 | -12.67474 | -76.66613 | 18394 ft | 385 kts | 144° |
| 2026-05-08 17:57 | -12.69701 | -76.65072 | 18755 ft | 387 kts | 144° |
| 2026-05-08 17:57 | -12.71938 | -76.63523 | 19121 ft | 389 kts | 144° |
| 2026-05-08 17:57 | -12.74211 | -76.61932 | 19497 ft | 391 kts | 143° |
| 2026-05-08 17:58 | -12.76225 | -76.60122 | 19850 ft | 392 kts | 132° |
| 2026-05-08 17:58 | -12.77914 | -76.57927 | 20211 ft | 394 kts | 123° |
| 2026-05-08 17:58 | -12.79471 | -76.55609 | 20571 ft | 396 kts | 124° |
| 2026-05-08 17:58 | -12.81044 | -76.53280 | 20925 ft | 398 kts | 124° |
| 2026-05-08 17:59 | -12.82631 | -76.50941 | 21278 ft | 401 kts | 124° |
| 2026-05-08 17:59 | -12.84233 | -76.48590 | 21619 ft | 404 kts | 124° |
| 2026-05-08 17:59 | -12.85844 | -76.46222 | 21959 ft | 406 kts | 125° |
| 2026-05-08 17:59 | -12.87463 | -76.43836 | 22290 ft | 409 kts | 125° |
| 2026-05-08 18:00 | -12.89092 | -76.41432 | 22637 ft | 412 kts | 125° |
| 2026-05-08 18:00 | -12.92371 | -76.36576 | 23294 ft | 417 kts | 125° |
| 2026-05-08 18:00 | -12.94025 | -76.34121 | 23611 ft | 419 kts | 125° |
| 2026-05-08 18:01 | -12.95687 | -76.31657 | 23880 ft | 422 kts | 125° |
| 2026-05-08 18:01 | -12.97358 | -76.29179 | 24159 ft | 424 kts | 126° |
| 2026-05-08 18:01 | -12.99037 | -76.26688 | 24430 ft | 426 kts | 126° |
| 2026-05-08 18:01 | -13.00727 | -76.24187 | 24708 ft | 428 kts | 126° |
| 2026-05-08 18:02 | -13.02423 | -76.21679 | 24970 ft | 430 kts | 126° |
| 2026-05-08 18:02 | -13.03552 | -76.20009 | 25147 ft | 431 kts | 126° |
| 2026-05-08 18:02 | -13.05849 | -76.16609 | 25491 ft | 435 kts | 126° |
| 2026-05-08 18:02 | -13.07575 | -76.14054 | 25770 ft | 437 kts | 126° |
| 2026-05-08 18:03 | -13.09310 | -76.11484 | 26032 ft | 439 kts | 127° |
| 2026-05-08 18:03 | -13.11051 | -76.08903 | 26282 ft | 442 kts | 127° |
| 2026-05-08 18:03 | -13.12802 | -76.06305 | 26544 ft | 444 kts | 127° |
| 2026-05-08 18:03 | -13.14561 | -76.03693 | 26810 ft | 446 kts | 127° |
| 2026-05-08 18:04 | -13.16327 | -76.01068 | 27065 ft | 448 kts | 127° |
| 2026-05-08 18:04 | -13.18103 | -75.98428 | 27307 ft | 450 kts | 127° |
| 2026-05-08 18:04 | -13.19888 | -75.95779 | 27561 ft | 452 kts | 127° |
| 2026-05-08 18:04 | -13.21683 | -75.93116 | 27813 ft | 455 kts | 127° |
| 2026-05-08 18:05 | -13.23483 | -75.90439 | 28056 ft | 457 kts | 127° |
| 2026-05-08 18:05 | -13.25290 | -75.87748 | 28278 ft | 459 kts | 127° |
| 2026-05-08 18:05 | -13.27107 | -75.85045 | 28529 ft | 461 kts | 127° |
| 2026-05-08 18:05 | -13.28933 | -75.82328 | 28735 ft | 463 kts | 128° |
| 2026-05-08 18:06 | -13.30768 | -75.79601 | 28986 ft | 465 kts | 128° |
| 2026-05-08 18:06 | -13.32608 | -75.76862 | 29239 ft | 467 kts | 128° |
| 2026-05-08 18:06 | -13.34431 | -75.74147 | 29474 ft | 469 kts | 128° |
| 2026-05-08 18:06 | -13.36307 | -75.71354 | 29720 ft | 471 kts | 128° |
| 2026-05-08 18:07 | -13.38170 | -75.68579 | 29988 ft | 473 kts | 128° |
| 2026-05-08 18:07 | -13.40015 | -75.65828 | 30196 ft | 475 kts | 128° |
| 2026-05-08 18:07 | -13.41892 | -75.63028 | 30405 ft | 477 kts | 128° |
| 2026-05-08 18:07 | -13.43775 | -75.60216 | 30590 ft | 479 kts | 128° |
| 2026-05-08 18:08 | -13.45665 | -75.57391 | 30769 ft | 481 kts | 128° |
| 2026-05-08 18:08 | -13.47561 | -75.54554 | 30948 ft | 483 kts | 128° |
| 2026-05-08 18:08 | -13.49464 | -75.51706 | 31131 ft | 484 kts | 128° |
| 2026-05-08 18:08 | -13.51376 | -75.48848 | 31310 ft | 486 kts | 128° |
| 2026-05-08 18:09 | -13.53294 | -75.45984 | 31545 ft | 486 kts | 129° |
| 2026-05-08 18:09 | -13.55212 | -75.43120 | 31784 ft | 487 kts | 129° |
| 2026-05-08 18:09 | -13.57132 | -75.40255 | 32037 ft | 487 kts | 129° |
| 2026-05-08 18:09 | -13.59051 | -75.37390 | 32306 ft | 487 kts | 129° |
| 2026-05-08 18:10 | -13.60971 | -75.34522 | 32562 ft | 487 kts | 129° |
| 2026-05-08 18:10 | -13.62886 | -75.31653 | 32798 ft | 487 kts | 129° |
| 2026-05-08 18:10 | -13.64802 | -75.28779 | 33052 ft | 487 kts | 129° |
| 2026-05-08 18:10 | -13.66715 | -75.25910 | 33298 ft | 488 kts | 129° |
| 2026-05-08 18:11 | -13.68635 | -75.23034 | 33562 ft | 488 kts | 130° |
| 2026-05-08 18:11 | -13.70556 | -75.20156 | 33810 ft | 488 kts | 130° |
| 2026-05-08 18:11 | -13.72478 | -75.17276 | 34052 ft | 488 kts | 130° |
| 2026-05-08 18:11 | -13.74400 | -75.14393 | 34262 ft | 489 kts | 130° |
| 2026-05-08 18:12 | -13.76322 | -75.11507 | 34495 ft | 489 kts | 130° |
| 2026-05-08 18:12 | -13.78245 | -75.08620 | 34755 ft | 489 kts | 130° |
| 2026-05-08 18:12 | -13.80166 | -75.05735 | 34983 ft | 489 kts | 130° |
| 2026-05-08 18:12 | -13.82090 | -75.02850 | 35091 ft | 488 kts | 130° |
| 2026-05-08 18:13 | -13.85918 | -74.97107 | 35114 ft | 485 kts | 130° |
| 2026-05-08 18:13 | -13.89723 | -74.91373 | 35115 ft | 485 kts | 130° |
| 2026-05-08 18:14 | -13.93533 | -74.85635 | 35111 ft | 485 kts | 130° |
| 2026-05-08 18:14 | -13.97343 | -74.79893 | 35112 ft | 486 kts | 130° |
| 2026-05-08 18:15 | -14.01151 | -74.74152 | 35109 ft | 486 kts | 130° |
| 2026-05-08 18:15 | -14.04973 | -74.68396 | 35109 ft | 486 kts | 130° |
| 2026-05-08 18:16 | -14.08787 | -74.62652 | 35104 ft | 486 kts | 130° |
| 2026-05-08 18:16 | -14.12574 | -74.56937 | 35096 ft | 486 kts | 130° |
| 2026-05-08 18:17 | -14.16377 | -74.51187 | 35094 ft | 485 kts | 130° |
| 2026-05-08 18:17 | -14.20174 | -74.45438 | 35086 ft | 485 kts | 129° |
| 2026-05-08 18:18 | -14.23973 | -74.39692 | 35076 ft | 485 kts | 130° |
| 2026-05-08 18:18 | -14.27771 | -74.33945 | 35062 ft | 485 kts | 129° |
| 2026-05-08 18:19 | -14.31564 | -74.28189 | 35060 ft | 485 kts | 129° |
| 2026-05-08 18:19 | -14.35356 | -74.22443 | 35046 ft | 485 kts | 129° |
| 2026-05-08 18:20 | -14.39149 | -74.16687 | 35041 ft | 485 kts | 129° |
| 2026-05-08 18:20 | -14.42943 | -74.10932 | 35036 ft | 485 kts | 129° |
| 2026-05-08 18:21 | -14.46728 | -74.05174 | 35034 ft | 485 kts | 129° |
| 2026-05-08 18:21 | -14.50513 | -73.99413 | 35034 ft | 485 kts | 129° |
| 2026-05-08 18:22 | -14.54305 | -73.93656 | 35032 ft | 485 kts | 130° |
| 2026-05-08 18:22 | -14.58096 | -73.87896 | 35028 ft | 485 kts | 129° |
| 2026-05-08 18:23 | -14.61875 | -73.82127 | 35034 ft | 485 kts | 129° |
| 2026-05-08 18:23 | -14.65650 | -73.76360 | 35044 ft | 484 kts | 129° |
| 2026-05-08 18:24 | -14.69429 | -73.70597 | 35029 ft | 485 kts | 129° |
| 2026-05-08 18:24 | -14.73181 | -73.64870 | 35032 ft | 484 kts | 129° |
| 2026-05-08 18:25 | -14.76974 | -73.59074 | 35044 ft | 484 kts | 129° |
| 2026-05-08 18:25 | -14.80741 | -73.53310 | 35041 ft | 484 kts | 129° |
| 2026-05-08 18:26 | -14.84480 | -73.47588 | 35048 ft | 484 kts | 129° |
| 2026-05-08 18:26 | -14.88244 | -73.41825 | 35051 ft | 484 kts | 129° |
| 2026-05-08 18:27 | -14.90760 | -73.37971 | 35040 ft | 484 kts | 129° |
| 2026-05-08 18:27 | -14.95760 | -73.30299 | 35039 ft | 482 kts | 129° |
| 2026-05-08 18:28 | -14.99507 | -73.24544 | 35036 ft | 482 kts | 129° |
| 2026-05-08 18:28 | -15.03248 | -73.18803 | 35033 ft | 482 kts | 129° |
| 2026-05-08 18:29 | -15.06384 | -73.13984 | 35039 ft | 482 kts | 129° |
| 2026-05-08 18:29 | -15.10126 | -73.08234 | 35045 ft | 481 kts | 129° |
| 2026-05-08 18:30 | -15.13858 | -73.02482 | 35046 ft | 481 kts | 129° |
| 2026-05-08 18:30 | -15.17585 | -72.96734 | 35054 ft | 481 kts | 128° |
| 2026-05-08 18:31 | -15.21289 | -72.91033 | 35068 ft | 481 kts | 128° |
| 2026-05-08 18:31 | -15.25011 | -72.85285 | 35081 ft | 480 kts | 128° |
| 2026-05-08 18:32 | -15.28724 | -72.79542 | 35083 ft | 480 kts | 128° |
| 2026-05-08 18:32 | -15.32442 | -72.73810 | 35086 ft | 479 kts | 128° |
| 2026-05-08 18:33 | -15.36150 | -72.68073 | 35090 ft | 478 kts | 128° |
| 2026-05-08 18:33 | -15.39846 | -72.62347 | 35092 ft | 478 kts | 128° |
| 2026-05-08 18:34 | -15.43547 | -72.56616 | 35093 ft | 478 kts | 128° |
| 2026-05-08 18:34 | -15.47243 | -72.50890 | 35087 ft | 478 kts | 128° |
| 2026-05-08 18:35 | -15.50936 | -72.45168 | 35082 ft | 477 kts | 128° |
| 2026-05-08 18:35 | -15.54629 | -72.39443 | 35082 ft | 477 kts | 128° |
| 2026-05-08 18:36 | -15.58306 | -72.33723 | 35071 ft | 477 kts | 128° |
| 2026-05-08 18:36 | -15.61985 | -72.28006 | 35063 ft | 476 kts | 128° |
| 2026-05-08 18:37 | -15.65656 | -72.22296 | 35067 ft | 477 kts | 128° |
| 2026-05-08 18:37 | -15.69344 | -72.16567 | 35068 ft | 477 kts | 128° |
| 2026-05-08 18:38 | -15.72999 | -72.10873 | 35075 ft | 478 kts | 128° |
| 2026-05-08 18:38 | -15.76672 | -72.05142 | 35068 ft | 476 kts | 127° |
| 2026-05-08 18:39 | -15.80332 | -71.99420 | 35066 ft | 476 kts | 127° |
| 2026-05-08 18:39 | -15.83998 | -71.93694 | 35067 ft | 476 kts | 127° |
| 2026-05-08 18:40 | -15.87671 | -71.87969 | 35067 ft | 476 kts | 127° |
| 2026-05-08 18:40 | -15.91334 | -71.82241 | 35066 ft | 476 kts | 127° |
| 2026-05-08 18:41 | -15.94987 | -71.76511 | 35071 ft | 476 kts | 127° |
| 2026-05-08 18:41 | -15.98638 | -71.70782 | 35073 ft | 476 kts | 127° |
| 2026-05-08 18:42 | -16.02301 | -71.65050 | 35100 ft | 476 kts | 127° |
| 2026-05-08 18:42 | -16.05962 | -71.59315 | 35141 ft | 476 kts | 127° |
| 2026-05-08 18:43 | -16.09612 | -71.53572 | 35175 ft | 476 kts | 127° |
| 2026-05-08 18:43 | -16.13259 | -71.47837 | 35188 ft | 476 kts | 127° |
| 2026-05-08 18:44 | -16.16912 | -71.42090 | 35197 ft | 476 kts | 127° |
| 2026-05-08 18:44 | -16.20563 | -71.36342 | 35181 ft | 476 kts | 127° |
| 2026-05-08 18:45 | -16.24211 | -71.30593 | 35152 ft | 476 kts | 126° |
| 2026-05-08 18:45 | -16.27857 | -71.24837 | 35113 ft | 476 kts | 127° |
| 2026-05-08 18:46 | -16.31504 | -71.19084 | 35067 ft | 476 kts | 126° |
| 2026-05-08 18:46 | -16.35152 | -71.13331 | 35063 ft | 476 kts | 126° |
| 2026-05-08 18:47 | -16.38794 | -71.07579 | 35057 ft | 476 kts | 126° |
| 2026-05-08 18:47 | -16.42428 | -71.01833 | 35054 ft | 475 kts | 126° |
| 2026-05-08 18:48 | -16.46068 | -70.96082 | 35047 ft | 475 kts | 126° |
| 2026-05-08 18:48 | -16.49704 | -70.90325 | 35046 ft | 475 kts | 126° |
| 2026-05-08 18:49 | -16.53308 | -70.84601 | 35046 ft | 475 kts | 126° |
| 2026-05-08 18:49 | -16.56932 | -70.78851 | 35040 ft | 474 kts | 126° |
| 2026-05-08 18:50 | -16.60546 | -70.73100 | 35046 ft | 475 kts | 126° |
| 2026-05-08 18:50 | -16.64172 | -70.67338 | 35054 ft | 475 kts | 126° |
| 2026-05-08 18:51 | -16.67796 | -70.61578 | 35065 ft | 475 kts | 126° |
| 2026-05-08 18:51 | -16.71420 | -70.55815 | 35070 ft | 475 kts | 126° |
| 2026-05-08 18:52 | -16.75041 | -70.50049 | 35070 ft | 475 kts | 126° |
| 2026-05-08 18:52 | -16.78660 | -70.44280 | 35082 ft | 475 kts | 126° |
| 2026-05-08 18:53 | -16.82280 | -70.38505 | 35092 ft | 475 kts | 126° |
| 2026-05-08 18:53 | -16.85890 | -70.32735 | 35096 ft | 475 kts | 126° |
| 2026-05-08 18:54 | -16.89500 | -70.26951 | 35095 ft | 475 kts | 126° |
| 2026-05-08 18:54 | -16.93116 | -70.21170 | 35091 ft | 475 kts | 126° |
| 2026-05-08 18:55 | -16.98530 | -70.12500 | 35081 ft | 475 kts | 126° |
| 2026-05-08 18:56 | -17.02144 | -70.06710 | 35069 ft | 475 kts | 126° |
| 2026-05-08 18:56 | -17.05743 | -70.00934 | 35065 ft | 475 kts | 126° |
| 2026-05-08 18:57 | -17.09344 | -69.95148 | 35066 ft | 474 kts | 125° |
| 2026-05-08 18:57 | -17.12944 | -69.89361 | 35051 ft | 475 kts | 125° |
| 2026-05-08 18:58 | -17.16549 | -69.83573 | 35044 ft | 475 kts | 125° |
| 2026-05-08 18:58 | -17.20141 | -69.77773 | 35037 ft | 475 kts | 125° |
| 2026-05-08 18:59 | -17.23737 | -69.71974 | 35029 ft | 475 kts | 125° |
| 2026-05-08 18:59 | -17.27335 | -69.66183 | 35014 ft | 475 kts | 125° |
| 2026-05-08 19:00 | -17.30326 | -69.61354 | 35002 ft | 476 kts | 125° |
| 2026-05-08 19:00 | -17.34452 | -69.54500 | 34985 ft | 477 kts | 124° |
| 2026-05-08 19:01 | -17.37927 | -69.48639 | 34977 ft | 477 kts | 124° |
| 2026-05-08 19:01 | -17.41435 | -69.42739 | 34961 ft | 477 kts | 124° |
| 2026-05-08 19:02 | -17.44958 | -69.36844 | 34949 ft | 478 kts | 124° |
| 2026-05-08 19:02 | -17.48504 | -69.30913 | 34934 ft | 478 kts | 124° |
| 2026-05-08 19:03 | -17.52080 | -69.25047 | 34932 ft | 478 kts | 125° |
| 2026-05-08 19:03 | -17.55680 | -69.19244 | 34931 ft | 478 kts | 125° |
| 2026-05-08 19:04 | -17.59298 | -69.13390 | 34929 ft | 479 kts | 125° |
| 2026-05-08 19:04 | -17.62896 | -69.07515 | 34934 ft | 479 kts | 124° |
| 2026-05-08 19:05 | -17.66487 | -69.01634 | 34930 ft | 479 kts | 125° |
| 2026-05-08 19:05 | -17.70080 | -68.95757 | 34925 ft | 479 kts | 125° |
| 2026-05-08 19:06 | -17.73676 | -68.89877 | 34921 ft | 479 kts | 125° |
| 2026-05-08 19:06 | -17.77265 | -68.83998 | 34916 ft | 479 kts | 125° |
| 2026-05-08 19:07 | -17.80861 | -68.78112 | 34912 ft | 479 kts | 125° |
| 2026-05-08 19:07 | -17.84456 | -68.72228 | 34906 ft | 479 kts | 125° |
| 2026-05-08 19:08 | -17.88043 | -68.66341 | 34904 ft | 479 kts | 125° |
| 2026-05-08 19:08 | -17.91627 | -68.60454 | 34904 ft | 478 kts | 124° |
| 2026-05-08 19:09 | -17.95198 | -68.54569 | 34906 ft | 477 kts | 124° |
| 2026-05-08 19:09 | -17.98771 | -68.48690 | 34903 ft | 477 kts | 124° |
| 2026-05-08 19:10 | -18.02345 | -68.42812 | 34903 ft | 477 kts | 124° |
| 2026-05-08 19:10 | -18.05929 | -68.36947 | 34905 ft | 477 kts | 125° |
| 2026-05-08 19:11 | -18.09612 | -68.31143 | 34905 ft | 477 kts | 126° |
| 2026-05-08 19:11 | -18.13328 | -68.25363 | 34905 ft | 477 kts | 126° |
| 2026-05-08 19:12 | -18.17020 | -68.19573 | 34902 ft | 476 kts | 126° |
| 2026-05-08 19:12 | -18.20691 | -68.13777 | 34895 ft | 476 kts | 126° |
| 2026-05-08 19:13 | -18.24358 | -68.07978 | 34893 ft | 476 kts | 126° |
| 2026-05-08 19:13 | -18.27406 | -68.03152 | 34892 ft | 476 kts | 126° |
| 2026-05-08 19:14 | -18.31064 | -67.97352 | 34892 ft | 476 kts | 126° |
| 2026-05-08 19:14 | -18.34730 | -67.91543 | 34890 ft | 476 kts | 126° |
| 2026-05-08 19:15 | -18.38397 | -67.85729 | 34903 ft | 477 kts | 126° |
| 2026-05-08 19:15 | -18.42070 | -67.79917 | 34914 ft | 476 kts | 126° |
| 2026-05-08 19:16 | -18.45734 | -67.74101 | 34919 ft | 476 kts | 126° |
| 2026-05-08 19:16 | -18.49389 | -67.68281 | 34920 ft | 476 kts | 125° |
| 2026-05-08 19:17 | -18.53041 | -67.62463 | 34929 ft | 476 kts | 126° |
| 2026-05-08 19:17 | -18.56688 | -67.56654 | 34938 ft | 476 kts | 125° |
| 2026-05-08 19:18 | -18.60331 | -67.50832 | 34948 ft | 476 kts | 125° |
| 2026-05-08 19:18 | -18.63957 | -67.45045 | 34945 ft | 476 kts | 125° |
| 2026-05-08 19:19 | -18.67598 | -67.39216 | 34956 ft | 476 kts | 125° |
| 2026-05-08 19:19 | -18.71227 | -67.33384 | 34957 ft | 476 kts | 125° |
| 2026-05-08 19:20 | -18.74865 | -67.27538 | 34962 ft | 476 kts | 125° |
| 2026-05-08 19:20 | -18.78488 | -67.21702 | 34968 ft | 476 kts | 125° |
| 2026-05-08 19:21 | -18.82116 | -67.15860 | 34971 ft | 476 kts | 125° |
| 2026-05-08 19:21 | -18.85738 | -67.10016 | 34978 ft | 475 kts | 125° |
| 2026-05-08 19:22 | -18.89357 | -67.04172 | 34990 ft | 475 kts | 125° |
| 2026-05-08 19:22 | -18.92979 | -66.98326 | 34993 ft | 476 kts | 125° |
| 2026-05-08 19:23 | -18.96599 | -66.92477 | 35003 ft | 476 kts | 125° |
| 2026-05-08 19:23 | -19.00218 | -66.86623 | 35016 ft | 476 kts | 125° |
| 2026-05-08 19:24 | -19.03831 | -66.80763 | 35025 ft | 476 kts | 125° |
| 2026-05-08 19:24 | -19.07446 | -66.74901 | 35045 ft | 476 kts | 125° |
| 2026-05-08 19:25 | -19.11064 | -66.69037 | 35052 ft | 476 kts | 125° |
| 2026-05-08 19:25 | -19.14674 | -66.63171 | 35044 ft | 476 kts | 125° |
| 2026-05-08 19:26 | -19.18277 | -66.57304 | 35054 ft | 476 kts | 125° |
| 2026-05-08 19:26 | -19.21886 | -66.51426 | 35047 ft | 476 kts | 125° |
| 2026-05-08 19:27 | -19.25499 | -66.45548 | 35044 ft | 476 kts | 125° |
| 2026-05-08 19:27 | -19.29082 | -66.39703 | 35040 ft | 476 kts | 125° |
| 2026-05-08 19:28 | -19.32718 | -66.33782 | 35026 ft | 477 kts | 125° |
| 2026-05-08 19:28 | -19.36303 | -66.27933 | 35014 ft | 477 kts | 125° |
| 2026-05-08 19:29 | -19.39902 | -66.22036 | 34995 ft | 477 kts | 125° |
| 2026-05-08 19:29 | -19.43509 | -66.16143 | 34973 ft | 477 kts | 125° |
| 2026-05-08 19:30 | -19.47139 | -66.10267 | 34954 ft | 477 kts | 126° |
| 2026-05-08 19:30 | -19.50773 | -66.04385 | 34930 ft | 477 kts | 126° |
| 2026-05-08 19:31 | -19.54412 | -65.98506 | 34908 ft | 477 kts | 126° |
| 2026-05-08 19:31 | -19.58050 | -65.92622 | 34887 ft | 477 kts | 126° |
| 2026-05-08 19:32 | -19.61688 | -65.86732 | 34878 ft | 477 kts | 126° |
| 2026-05-08 19:32 | -19.65315 | -65.80829 | 34860 ft | 478 kts | 125° |
| 2026-05-08 19:33 | -19.68865 | -65.74859 | 34850 ft | 479 kts | 124° |
| 2026-05-08 19:33 | -19.72389 | -65.68869 | 34832 ft | 479 kts | 124° |
| 2026-05-08 19:34 | -19.75934 | -65.62879 | 34815 ft | 479 kts | 124° |
| 2026-05-08 19:34 | -19.79493 | -65.56898 | 34806 ft | 479 kts | 125° |
| 2026-05-08 19:35 | -19.83051 | -65.50917 | 34796 ft | 479 kts | 124° |
| 2026-05-08 19:35 | -19.86606 | -65.44936 | 34781 ft | 479 kts | 124° |
| 2026-05-08 19:36 | -19.90168 | -65.38962 | 34763 ft | 478 kts | 124° |
| 2026-05-08 19:36 | -19.93731 | -65.32989 | 34752 ft | 478 kts | 124° |
| 2026-05-08 19:37 | -19.97289 | -65.27016 | 34748 ft | 479 kts | 124° |
| 2026-05-08 19:37 | -20.00845 | -65.21031 | 34742 ft | 479 kts | 124° |
| 2026-05-08 19:38 | -20.04396 | -65.15042 | 34746 ft | 479 kts | 124° |
| 2026-05-08 19:38 | -20.07941 | -65.09048 | 34746 ft | 479 kts | 124° |
| 2026-05-08 19:39 | -20.11488 | -65.03053 | 34754 ft | 479 kts | 124° |
| 2026-05-08 19:39 | -20.15018 | -64.97099 | 34765 ft | 479 kts | 124° |
| 2026-05-08 19:40 | -20.18599 | -64.91076 | 34779 ft | 479 kts | 124° |
| 2026-05-08 19:40 | -20.22165 | -64.85089 | 34793 ft | 479 kts | 124° |
| 2026-05-08 19:41 | -20.25705 | -64.79146 | 34797 ft | 478 kts | 124° |
| 2026-05-08 19:41 | -20.29269 | -64.73161 | 34831 ft | 478 kts | 124° |
| 2026-05-08 19:42 | -20.32829 | -64.67165 | 34862 ft | 479 kts | 124° |
| 2026-05-08 19:42 | -20.36382 | -64.61168 | 34881 ft | 479 kts | 124° |
| 2026-05-08 19:43 | -20.39949 | -64.55171 | 34903 ft | 479 kts | 124° |
| 2026-05-08 19:43 | -20.43525 | -64.49173 | 34922 ft | 479 kts | 124° |
| 2026-05-08 19:44 | -20.47087 | -64.43169 | 34934 ft | 479 kts | 124° |
| 2026-05-08 19:44 | -20.50650 | -64.37156 | 34930 ft | 480 kts | 124° |
| 2026-05-08 19:45 | -20.54214 | -64.31140 | 34926 ft | 480 kts | 124° |
| 2026-05-08 19:45 | -20.57788 | -64.25126 | 34921 ft | 480 kts | 125° |
| 2026-05-08 19:46 | -20.61376 | -64.19105 | 34921 ft | 481 kts | 125° |
| 2026-05-08 19:46 | -20.66750 | -64.10053 | 34918 ft | 481 kts | 125° |
| 2026-05-08 19:47 | -20.70343 | -64.04033 | 34925 ft | 481 kts | 125° |
| 2026-05-08 19:47 | -20.73958 | -63.98019 | 34925 ft | 481 kts | 125° |
| 2026-05-08 19:48 | -20.77568 | -63.92003 | 34925 ft | 481 kts | 125° |
| 2026-05-08 19:48 | -20.81165 | -63.85970 | 34926 ft | 481 kts | 125° |
| 2026-05-08 19:49 | -20.84765 | -63.79943 | 34930 ft | 481 kts | 125° |
| 2026-05-08 19:49 | -20.88353 | -63.73920 | 34928 ft | 481 kts | 125° |
| 2026-05-08 19:50 | -20.91944 | -63.67886 | 34930 ft | 481 kts | 125° |
| 2026-05-08 19:50 | -20.95542 | -63.61856 | 34931 ft | 481 kts | 125° |
| 2026-05-08 19:51 | -20.99134 | -63.55822 | 34941 ft | 481 kts | 125° |
| 2026-05-08 19:51 | -21.02718 | -63.49784 | 34948 ft | 481 kts | 125° |
| 2026-05-08 19:52 | -21.06296 | -63.43740 | 34952 ft | 480 kts | 125° |
| 2026-05-08 19:52 | -21.09871 | -63.37694 | 34950 ft | 481 kts | 125° |
| 2026-05-08 19:53 | -21.13450 | -63.31646 | 34953 ft | 481 kts | 125° |
| 2026-05-08 19:53 | -21.17032 | -63.25598 | 34952 ft | 481 kts | 125° |
| 2026-05-08 19:54 | -21.20617 | -63.19551 | 34945 ft | 481 kts | 125° |
| 2026-05-08 19:54 | -21.24196 | -63.13495 | 34943 ft | 481 kts | 125° |
| 2026-05-08 19:55 | -21.27763 | -63.07438 | 34941 ft | 481 kts | 124° |
| 2026-05-08 19:55 | -21.31309 | -63.01411 | 34933 ft | 481 kts | 125° |
| 2026-05-08 19:56 | -21.34943 | -62.95388 | 34935 ft | 481 kts | 126° |
| 2026-05-08 19:56 | -21.38624 | -62.89401 | 34933 ft | 481 kts | 126° |
| 2026-05-08 19:57 | -21.42294 | -62.83404 | 34935 ft | 481 kts | 126° |
| 2026-05-08 19:57 | -21.45948 | -62.77394 | 34931 ft | 481 kts | 126° |
| 2026-05-08 19:58 | -21.49592 | -62.71379 | 34935 ft | 480 kts | 126° |
| 2026-05-08 19:58 | -21.53241 | -62.65371 | 34937 ft | 480 kts | 126° |
| 2026-05-08 19:59 | -21.56890 | -62.59375 | 34935 ft | 480 kts | 126° |
| 2026-05-08 19:59 | -21.60531 | -62.53362 | 34937 ft | 480 kts | 126° |
| 2026-05-08 20:00 | -21.63550 | -62.48355 | 34938 ft | 480 kts | 126° |
| 2026-05-08 20:00 | -21.67203 | -62.42299 | 34938 ft | 480 kts | 126° |
| 2026-05-08 20:01 | -21.70838 | -62.36279 | 34938 ft | 480 kts | 126° |
| 2026-05-08 20:01 | -21.74463 | -62.30249 | 34935 ft | 480 kts | 126° |
| 2026-05-08 20:02 | -21.78093 | -62.24222 | 34933 ft | 480 kts | 126° |
| 2026-05-08 20:02 | -21.81719 | -62.18188 | 34930 ft | 480 kts | 125° |
| 2026-05-08 20:03 | -21.85341 | -62.12145 | 34935 ft | 481 kts | 126° |
| 2026-05-08 20:03 | -21.88971 | -62.06099 | 34941 ft | 481 kts | 126° |
| 2026-05-08 20:04 | -21.92593 | -62.00046 | 34939 ft | 481 kts | 126° |
| 2026-05-08 20:04 | -21.96185 | -61.94027 | 34943 ft | 481 kts | 126° |
| 2026-05-08 20:05 | -21.99806 | -61.87968 | 34940 ft | 481 kts | 126° |
| 2026-05-08 20:05 | -22.03439 | -61.81880 | 35082 ft | 487 kts | 126° |
| 2026-05-08 20:06 | -22.05275 | -61.78802 | 35291 ft | 488 kts | 126° |
| 2026-05-08 20:06 | -22.07114 | -61.75720 | 35527 ft | 489 kts | 125° |
| 2026-05-08 20:06 | -22.08952 | -61.72636 | 35772 ft | 489 kts | 125° |
| 2026-05-08 20:06 | -22.10789 | -61.69552 | 36012 ft | 489 kts | 125° |
| 2026-05-08 20:07 | -22.12623 | -61.66465 | 36248 ft | 489 kts | 125° |
| 2026-05-08 20:07 | -22.14455 | -61.63378 | 36475 ft | 489 kts | 125° |
| 2026-05-08 20:07 | -22.16286 | -61.60291 | 36695 ft | 489 kts | 125° |
| 2026-05-08 20:07 | -22.18119 | -61.57204 | 36902 ft | 489 kts | 125° |
| 2026-05-08 20:08 | -22.21785 | -61.51025 | 36952 ft | 489 kts | 125° |
| 2026-05-08 20:08 | -22.25446 | -61.44844 | 36954 ft | 489 kts | 125° |
| 2026-05-08 20:09 | -22.29106 | -61.38665 | 36954 ft | 489 kts | 125° |
| 2026-05-08 20:09 | -22.32772 | -61.32473 | 36958 ft | 489 kts | 125° |
| 2026-05-08 20:10 | -22.36427 | -61.26267 | 36959 ft | 489 kts | 125° |
| 2026-05-08 20:10 | -22.40081 | -61.20062 | 36953 ft | 489 kts | 125° |
| 2026-05-08 20:11 | -22.43743 | -61.13860 | 36952 ft | 489 kts | 125° |
| 2026-05-08 20:11 | -22.47402 | -61.07652 | 36951 ft | 490 kts | 125° |
| 2026-05-08 20:12 | -22.51055 | -61.01430 | 36951 ft | 490 kts | 124° |
| 2026-05-08 20:12 | -22.54704 | -60.95209 | 36952 ft | 490 kts | 125° |
| 2026-05-08 20:13 | -22.58361 | -60.88974 | 36952 ft | 491 kts | 125° |
| 2026-05-08 20:13 | -22.62018 | -60.82732 | 36951 ft | 491 kts | 125° |
| 2026-05-08 20:14 | -22.65673 | -60.76479 | 36953 ft | 492 kts | 125° |
| 2026-05-08 20:14 | -22.69305 | -60.70260 | 36960 ft | 492 kts | 125° |
| 2026-05-08 20:15 | -22.72961 | -60.63991 | 36951 ft | 492 kts | 124° |
| 2026-05-08 20:15 | -22.76620 | -60.57713 | 36961 ft | 493 kts | 124° |
| 2026-05-08 20:16 | -22.80309 | -60.51389 | 36964 ft | 493 kts | 125° |
| 2026-05-08 20:16 | -22.83942 | -60.45142 | 36964 ft | 494 kts | 125° |
| 2026-05-08 20:17 | -22.87600 | -60.38838 | 36957 ft | 494 kts | 125° |
| 2026-05-08 20:17 | -22.91260 | -60.32527 | 36959 ft | 494 kts | 125° |
| 2026-05-08 20:18 | -22.94924 | -60.26212 | 36958 ft | 495 kts | 125° |
| 2026-05-08 20:18 | -22.99219 | -60.20474 | 36963 ft | 487 kts | 141° |
| 2026-05-08 20:19 | -23.04141 | -60.15415 | 36963 ft | 488 kts | 141° |
| 2026-05-08 20:19 | -23.09055 | -60.10328 | 36966 ft | 488 kts | 141° |
| 2026-05-08 20:20 | -23.13965 | -60.05222 | 36972 ft | 489 kts | 141° |
| 2026-05-08 20:20 | -23.18874 | -60.00118 | 36972 ft | 489 kts | 141° |
| 2026-05-08 20:21 | -23.23795 | -59.95011 | 36976 ft | 489 kts | 141° |
| 2026-05-08 20:21 | -23.28712 | -59.89891 | 36976 ft | 489 kts | 141° |
| 2026-05-08 20:22 | -23.33628 | -59.84762 | 36975 ft | 490 kts | 141° |
| 2026-05-08 20:22 | -23.37722 | -59.80499 | 36979 ft | 490 kts | 141° |
| 2026-05-08 20:23 | -23.43478 | -59.74502 | 36977 ft | 490 kts | 141° |
| 2026-05-08 20:23 | -23.48407 | -59.69357 | 36978 ft | 491 kts | 141° |
| 2026-05-08 20:24 | -23.53330 | -59.64205 | 36980 ft | 491 kts | 141° |
| 2026-05-08 20:24 | -23.58252 | -59.59042 | 36976 ft | 491 kts | 141° |
| 2026-05-08 20:25 | -23.63172 | -59.53881 | 36976 ft | 491 kts | 141° |
| 2026-05-08 20:25 | -23.68103 | -59.48717 | 36980 ft | 492 kts | 141° |
| 2026-05-08 20:26 | -23.73032 | -59.43538 | 36982 ft | 492 kts | 141° |
| 2026-05-08 20:26 | -23.77962 | -59.38356 | 36978 ft | 492 kts | 141° |
| 2026-05-08 20:27 | -23.82891 | -59.33165 | 36907 ft | 493 kts | 141° |
| 2026-05-08 20:27 | -23.85386 | -59.30535 | 36001 ft | 506 kts | 141° |
| 2026-05-08 20:27 | -23.87939 | -59.27846 | 35410 ft | 512 kts | 141° |
| 2026-05-08 20:28 | -23.90508 | -59.25135 | 34982 ft | 514 kts | 141° |
| 2026-05-08 20:28 | -23.93071 | -59.22429 | 34644 ft | 513 kts | 141° |
| 2026-05-08 20:28 | -23.95631 | -59.19723 | 34332 ft | 511 kts | 140° |
| 2026-05-08 20:28 | -23.98156 | -59.17057 | 34043 ft | 509 kts | 140° |
| 2026-05-08 20:29 | -24.00727 | -59.14340 | 33716 ft | 507 kts | 140° |
| 2026-05-08 20:29 | -24.03257 | -59.11658 | 33410 ft | 505 kts | 140° |
| 2026-05-08 20:29 | -24.05776 | -59.08988 | 33108 ft | 503 kts | 141° |
| 2026-05-08 20:29 | -24.08250 | -59.06361 | 32819 ft | 501 kts | 141° |
| 2026-05-08 20:30 | -24.10748 | -59.03711 | 32528 ft | 499 kts | 141° |
| 2026-05-08 20:30 | -24.13237 | -59.01073 | 32241 ft | 497 kts | 141° |
| 2026-05-08 20:30 | -24.15718 | -58.98448 | 31961 ft | 495 kts | 141° |
| 2026-05-08 20:30 | -24.18047 | -58.95661 | 31689 ft | 499 kts | 130° |
| 2026-05-08 20:31 | -24.19871 | -58.92415 | 31432 ft | 503 kts | 118° |
| 2026-05-08 20:31 | -24.21133 | -58.88841 | 31152 ft | 503 kts | 110° |
| 2026-05-08 20:31 | -24.22254 | -58.85214 | 30859 ft | 502 kts | 110° |
| 2026-05-08 20:31 | -24.23378 | -58.81599 | 30588 ft | 500 kts | 110° |
| 2026-05-08 20:32 | -24.24501 | -58.77996 | 30325 ft | 499 kts | 111° |
| 2026-05-08 20:32 | -24.25619 | -58.74414 | 30060 ft | 497 kts | 111° |
| 2026-05-08 20:32 | -24.26748 | -58.70789 | 29758 ft | 495 kts | 111° |
| 2026-05-08 20:32 | -24.27846 | -58.67265 | 29468 ft | 493 kts | 111° |
| 2026-05-08 20:33 | -24.28962 | -58.63677 | 29185 ft | 491 kts | 111° |
| 2026-05-08 20:33 | -24.30044 | -58.60190 | 28909 ft | 489 kts | 111° |
| 2026-05-08 20:33 | -24.31135 | -58.56662 | 28631 ft | 486 kts | 110° |
| 2026-05-08 20:33 | -24.32216 | -58.53157 | 28344 ft | 484 kts | 110° |
| 2026-05-08 20:34 | -24.33291 | -58.49676 | 28072 ft | 482 kts | 110° |
| 2026-05-08 20:34 | -24.34364 | -58.46202 | 27802 ft | 480 kts | 110° |
| 2026-05-08 20:34 | -24.36492 | -58.39297 | 27260 ft | 476 kts | 110° |
| 2026-05-08 20:35 | -24.37550 | -58.35858 | 26990 ft | 474 kts | 110° |
| 2026-05-08 20:35 | -24.38600 | -58.32440 | 26722 ft | 472 kts | 110° |
| 2026-05-08 20:35 | -24.39644 | -58.29037 | 26461 ft | 470 kts | 110° |
| 2026-05-08 20:35 | -24.40682 | -58.25653 | 26196 ft | 468 kts | 110° |
| 2026-05-08 20:36 | -24.41718 | -58.22279 | 25937 ft | 466 kts | 110° |
| 2026-05-08 20:36 | -24.42751 | -58.18919 | 25680 ft | 464 kts | 110° |
| 2026-05-08 20:36 | -24.43778 | -58.15572 | 25423 ft | 462 kts | 110° |
| 2026-05-08 20:36 | -24.44798 | -58.12239 | 25174 ft | 460 kts | 110° |
| 2026-05-08 20:37 | -24.45812 | -58.08919 | 24936 ft | 458 kts | 110° |
| 2026-05-08 20:37 | -24.46820 | -58.05616 | 24590 ft | 455 kts | 110° |
| 2026-05-08 20:37 | -24.47820 | -58.02334 | 24218 ft | 452 kts | 110° |
| 2026-05-08 20:37 | -24.48814 | -57.99074 | 23848 ft | 449 kts | 110° |
| 2026-05-08 20:38 | -24.50010 | -57.95937 | 23451 ft | 442 kts | 124° |
| 2026-05-08 20:38 | -24.51894 | -57.93346 | 23012 ft | 429 kts | 143° |
| 2026-05-08 20:38 | -24.54259 | -57.91431 | 22539 ft | 420 kts | 152° |
| 2026-05-08 20:38 | -24.56690 | -57.89678 | 22050 ft | 418 kts | 152° |
| 2026-05-08 20:39 | -24.59117 | -57.87936 | 21589 ft | 416 kts | 152° |
| 2026-05-08 20:39 | -24.61532 | -57.86204 | 21095 ft | 413 kts | 152° |
| 2026-05-08 20:39 | -24.63925 | -57.84482 | 20492 ft | 410 kts | 152° |
| 2026-05-08 20:39 | -24.66301 | -57.82772 | 19898 ft | 407 kts | 151° |
| 2026-05-08 20:40 | -24.68661 | -57.81075 | 19315 ft | 404 kts | 151° |
| 2026-05-08 20:40 | -24.71003 | -57.79388 | 18755 ft | 401 kts | 151° |
| 2026-05-08 20:40 | -24.73324 | -57.77710 | 18199 ft | 398 kts | 150° |
| 2026-05-08 20:40 | -24.75626 | -57.76042 | 17574 ft | 395 kts | 150° |
| 2026-05-08 20:41 | -24.77907 | -57.74386 | 16973 ft | 391 kts | 150° |
| 2026-05-08 20:41 | -24.80179 | -57.72738 | 16636 ft | 390 kts | 150° |
| 2026-05-08 20:41 | -24.82436 | -57.71101 | 16330 ft | 387 kts | 150° |
| 2026-05-08 20:41 | -24.84681 | -57.69473 | 16019 ft | 385 kts | 150° |
| 2026-05-08 20:42 | -24.86915 | -57.67854 | 15707 ft | 383 kts | 149° |
| 2026-05-08 20:42 | -24.89139 | -57.66243 | 15403 ft | 382 kts | 149° |
| 2026-05-08 20:42 | -24.91351 | -57.64641 | 15100 ft | 380 kts | 149° |
| 2026-05-08 20:42 | -24.93552 | -57.63045 | 14807 ft | 378 kts | 149° |
| 2026-05-08 20:43 | -24.94992 | -57.62000 | 14721 ft | 372 kts | 149° |
| 2026-05-08 20:43 | -24.97133 | -57.60445 | 14605 ft | 365 kts | 149° |
| 2026-05-08 20:43 | -24.99233 | -57.58919 | 14489 ft | 358 kts | 149° |
| 2026-05-08 20:43 | -25.01419 | -57.57572 | 13776 ft | 366 kts | 164° |
| 2026-05-08 20:44 | -25.03944 | -57.57108 | 12773 ft | 373 kts | 186° |
| 2026-05-08 20:44 | -25.06486 | -57.57676 | 11776 ft | 376 kts | 206° |
| 2026-05-08 20:44 | -25.08711 | -57.59188 | 10805 ft | 379 kts | 225° |
| 2026-05-08 20:44 | -25.10337 | -57.61468 | 9850 ft | 382 kts | 244° |
| 2026-05-08 20:45 | -25.11138 | -57.64238 | 8780 ft | 378 kts | 264° |
| 2026-05-08 20:45 | -25.11005 | -57.67090 | 7782 ft | 371 kts | 283° |
| 2026-05-08 20:45 | -25.10001 | -57.69680 | 6826 ft | 369 kts | 303° |
| 2026-05-08 20:45 | -25.08252 | -57.71726 | 5862 ft | 367 kts | 323° |
| 2026-05-08 20:46 | -25.06061 | -57.73115 | 4907 ft | 364 kts | 339° |
| 2026-05-08 20:46 | -25.03640 | -57.73718 | 4343 ft | 349 kts | 358° |
| 2026-05-08 20:46 | -25.01320 | -57.73502 | 4165 ft | 323 kts | 16° |
| 2026-05-08 20:46 | -24.99335 | -57.72611 | 4135 ft | 295 kts | 35° |
| 2026-05-08 20:47 | -24.97811 | -57.71269 | 4143 ft | 269 kts | 51° |
| 2026-05-08 20:47 | -24.96755 | -57.69687 | 4147 ft | 245 kts | 66° |
| 2026-05-08 20:47 | -24.96121 | -57.68038 | 4146 ft | 223 kts | 79° |
| 2026-05-08 20:47 | -24.95846 | -57.66402 | 4155 ft | 214 kts | 91° |
| 2026-05-08 20:48 | -24.95874 | -57.64786 | 4147 ft | 209 kts | 101° |
| 2026-05-08 20:48 | -24.96181 | -57.63235 | 4147 ft | 207 kts | 112° |
| 2026-05-08 20:48 | -24.96754 | -57.61792 | 4146 ft | 205 kts | 122° |
| 2026-05-08 20:48 | -24.97561 | -57.60506 | 4147 ft | 204 kts | 133° |
| 2026-05-08 20:49 | -24.98568 | -57.59422 | 4147 ft | 203 kts | 142° |
| 2026-05-08 20:49 | -24.99695 | -57.58487 | 4119 ft | 203 kts | 143° |
| 2026-05-08 20:49 | -25.00511 | -57.57234 | 4052 ft | 206 kts | 113° |
| 2026-05-08 20:49 | -25.01068 | -57.55787 | 3966 ft | 203 kts | 123° |
| 2026-05-08 20:50 | -25.01836 | -57.54485 | 3869 ft | 202 kts | 127° |
| 2026-05-08 20:50 | -25.02641 | -57.53240 | 3785 ft | 202 kts | 128° |
| 2026-05-08 20:50 | -25.03455 | -57.51975 | 3693 ft | 202 kts | 128° |
| 2026-05-08 20:50 | -25.04239 | -57.50723 | 3600 ft | 194 kts | 127° |
| 2026-05-08 20:51 | -25.04987 | -57.49522 | 3516 ft | 184 kts | 131° |
| 2026-05-08 20:51 | -25.05900 | -57.48637 | 3496 ft | 167 kts | 149° |
| 2026-05-08 20:51 | -25.06952 | -57.48160 | 3323 ft | 161 kts | 166° |
| 2026-05-08 20:51 | -25.08050 | -57.48077 | 3147 ft | 157 kts | 182° |
| 2026-05-08 20:52 | -25.09113 | -57.48304 | 2951 ft | 154 kts | 189° |
| 2026-05-08 20:52 | -25.10152 | -57.48555 | 2747 ft | 152 kts | 189° |
| 2026-05-08 20:52 | -25.11173 | -57.48803 | 2544 ft | 149 kts | 190° |
| 2026-05-08 20:52 | -25.12185 | -57.49048 | 2356 ft | 149 kts | 190° |
| 2026-05-08 20:53 | -25.13189 | -57.49291 | 2152 ft | 146 kts | 190° |
| 2026-05-08 20:53 | -25.14146 | -57.49524 | 1959 ft | 134 kts | 190° |
| 2026-05-08 20:53 | -25.15031 | -57.49739 | 1785 ft | 128 kts | 191° |
| 2026-05-08 20:53 | -25.15889 | -57.49947 | 1616 ft | 125 kts | 192° |
| 2026-05-08 20:54 | -25.16742 | -57.50153 | 1436 ft | 125 kts | 191° |
| 2026-05-08 20:54 | -25.17591 | -57.50359 | 1276 ft | 125 kts | 192° |
| 2026-05-08 20:54 | -25.18437 | -57.50565 | 1102 ft | 124 kts | 192° |
| 2026-05-08 20:54 | -25.19281 | -57.50768 | 937 ft | 124 kts | 193° |
| 2026-05-08 20:55 | -25.20121 | -57.50973 | 798 ft | 123 kts | 193° |
| 2026-05-08 20:55 | -25.20962 | -57.51175 | 605 ft | 123 kts | 193° |
| 2026-05-08 20:55 | -25.21794 | -57.51375 | 464 ft | 122 kts | 194° |
| 2026-05-08 20:55 | -25.22621 | -57.51582 | 292 ft | 121 kts | 193° |
| 2026-05-08 20:56 | -25.23366 | -57.51766 | 273 ft | 90 kts | 192° |
| 2026-05-08 20:56 | -25.23806 | -57.51879 | 276 ft | 40 kts | 193° |
| 2026-05-08 20:56 | -25.24013 | -57.51918 | 280 ft | 31 kts | 189° |
| 2026-05-08 20:56 | -25.24200 | -57.51962 | 285 ft | 23 kts | 192° |
| 2026-05-08 20:57 | -25.24285 | -57.51830 | 280 ft | 15 kts | 103° |
| 2026-05-08 20:57 | -25.24306 | -57.51715 | 281 ft | 18 kts | 104° |
| 2026-05-08 20:57 | -25.24336 | -57.51568 | 280 ft | 19 kts | 103° |
| 2026-05-08 20:57 | -25.24356 | -57.51452 | 278 ft | 10 kts | 85° |
| 2026-05-08 20:58 | -25.24305 | -57.51423 | 278 ft | 6 kts | 15° |
| 2026-05-08 20:58 | -25.24291 | -57.51419 | 281 ft | 0 kts | 17° |